createdAt,value
2022-08-17T00:00:49.208Z,100.00
2022-08-17T00:03:23.844Z,100.00
2022-08-17T00:05:56.087Z,100.00
2022-08-17T00:08:27.605Z,100.00
2022-08-17T00:10:59.464Z,100.00
2022-08-17T00:13:31.058Z,100.00
2022-08-17T00:16:02.931Z,100.00
2022-08-17T00:19:01.767Z,100.00
2022-08-17T00:21:26.612Z,100.00
2022-08-17T00:24:18.100Z,100.00
2022-08-17T00:26:50.087Z,100.00
2022-08-17T00:29:21.706Z,100.00
2022-08-17T00:31:53.973Z,100.00
2022-08-17T00:34:25.587Z,100.00
2022-08-17T00:36:59.910Z,100.00
2022-08-17T00:39:31.465Z,100.00
2022-08-17T00:42:03.401Z,100.00
2022-08-17T00:44:34.916Z,100.00
2022-08-17T00:47:06.756Z,100.00
2022-08-17T00:49:38.270Z,100.00
2022-08-17T00:52:11.732Z,100.00
2022-08-17T00:54:43.550Z,100.00
2022-08-17T00:57:15.609Z,100.00
2022-08-17T00:59:47.195Z,100.00
2022-08-17T01:02:41.409Z,100.00
2022-08-17T01:05:14.862Z,100.00
2022-08-17T01:07:46.701Z,100.00
2022-08-17T01:11:00.038Z,100.00
2022-08-17T01:13:10.720Z,100.00
2022-08-17T01:15:42.592Z,100.00
2022-08-17T01:18:18.355Z,100.00
2022-08-17T01:20:49.902Z,100.00
2022-08-17T01:23:21.825Z,100.00
2022-08-17T01:25:53.348Z,100.00
2022-08-17T01:28:40.701Z,100.00
2022-08-17T01:31:16.679Z,100.00
2022-08-17T01:33:48.584Z,100.00
2022-08-17T01:36:20.378Z,100.00
2022-08-17T01:38:51.942Z,100.00
2022-08-17T01:41:23.497Z,100.00
2022-08-17T01:43:55.091Z,100.00
2022-08-17T01:46:27.438Z,100.00
2022-08-17T01:48:59.366Z,100.00
2022-08-17T01:51:33.116Z,100.00
2022-08-17T01:54:07.737Z,100.00
2022-08-17T01:56:39.664Z,100.00
2022-08-17T01:59:11.232Z,100.00
2022-08-17T02:01:43.799Z,100.00
2022-08-17T02:04:15.400Z,100.00
2022-08-17T02:06:54.236Z,100.00
2022-08-17T02:09:29.543Z,100.00
2022-08-17T02:12:38.497Z,100.00
2022-08-17T02:14:55.814Z,100.00
2022-08-17T02:17:27.746Z,100.00
2022-08-17T02:19:59.335Z,100.00
2022-08-17T02:22:31.332Z,100.00
2022-08-17T02:25:02.947Z,100.00
2022-08-17T02:27:34.804Z,100.00
2022-08-17T02:30:06.362Z,100.00
2022-08-17T02:32:58.363Z,100.00
2022-08-17T02:35:29.894Z,100.00
2022-08-17T02:38:02.178Z,100.00
2022-08-17T02:40:36.041Z,100.00
2022-08-17T02:43:08.565Z,100.00
2022-08-17T02:45:40.090Z,100.00
2022-08-17T02:48:12.119Z,100.00
2022-08-17T02:50:43.620Z,100.00
2022-08-17T02:53:15.468Z,100.00
2022-08-17T02:55:47.008Z,100.00
2022-08-17T02:58:34.786Z,100.00
2022-08-17T03:01:07.723Z,100.00
2022-08-17T03:03:39.274Z,100.00
2022-08-17T03:06:11.161Z,100.00
2022-08-17T03:08:42.666Z,100.00
2022-08-17T03:11:14.513Z,100.00
2022-08-17T03:13:46.078Z,100.00
2022-08-17T03:16:18.068Z,100.00
2022-08-17T03:18:49.612Z,100.00
2022-08-17T03:21:21.512Z,100.00
2022-08-17T03:23:54.739Z,100.00
2022-08-17T03:26:29.801Z,100.00
2022-08-17T03:29:01.496Z,100.00
2022-08-17T03:31:33.286Z,100.00
2022-08-17T03:34:08.760Z,100.00
2022-08-17T03:36:40.586Z,100.00
2022-08-17T03:39:12.153Z,100.00
2022-08-17T03:41:44.159Z,100.00
2022-08-17T03:44:15.700Z,100.00
2022-08-17T03:47:06.815Z,100.00
2022-08-17T03:49:57.080Z,100.00
2022-08-17T03:52:47.516Z,100.00
2022-08-17T03:55:42.158Z,100.00
2022-08-17T03:58:13.928Z,100.00
2022-08-17T04:00:46.277Z,100.00
2022-08-17T04:03:18.110Z,100.00
2022-08-17T04:05:49.634Z,100.00
2022-08-17T04:08:21.522Z,100.00
2022-08-17T04:10:53.048Z,100.00
2022-08-17T04:13:25.726Z,100.00
2022-08-17T04:15:59.267Z,100.00
2022-08-17T04:18:31.259Z,100.00
2022-08-17T04:21:05.144Z,100.00
2022-08-17T04:23:38.202Z,100.00
2022-08-17T04:26:09.782Z,100.00
2022-08-17T04:29:01.552Z,100.00
2022-08-17T04:31:33.925Z,100.00
2022-08-17T04:34:05.857Z,100.00
2022-08-17T04:36:37.379Z,100.00
2022-08-17T04:39:09.270Z,100.00
2022-08-17T04:42:01.305Z,100.00
2022-08-17T04:44:37.779Z,100.00
2022-08-17T04:47:10.627Z,100.00
2022-08-17T04:49:45.319Z,100.00
2022-08-17T04:52:32.226Z,100.00
2022-08-17T04:55:08.645Z,100.00
2022-08-17T04:57:44.550Z,100.00
2022-08-17T05:00:16.695Z,100.00
2022-08-17T05:02:50.258Z,100.00
2022-08-17T05:05:22.287Z,100.00
2022-08-17T05:07:57.108Z,100.00
2022-08-17T05:10:28.625Z,98.40
2022-08-17T05:13:00.524Z,97.20
2022-08-17T05:15:36.376Z,96.31
2022-08-17T05:18:08.309Z,95.24
2022-08-17T05:20:39.846Z,95.18
2022-08-17T05:23:11.703Z,95.50
2022-08-17T05:25:43.307Z,94.73
2022-08-17T05:28:24.133Z,94.22
2022-08-17T05:30:58.112Z,93.26
2022-08-17T05:33:29.971Z,91.72
2022-08-17T05:36:01.493Z,91.29
2022-08-17T05:38:33.432Z,90.05
2022-08-17T05:41:04.975Z,87.91
2022-08-17T05:43:36.869Z,86.10
2022-08-17T05:46:08.381Z,84.68
2022-08-17T05:48:40.468Z,83.61
2022-08-17T05:51:12.040Z,81.49
2022-08-17T05:53:43.590Z,78.37
2022-08-17T05:56:29.638Z,78.09
2022-08-17T05:59:02.256Z,77.64
2022-08-17T06:01:33.811Z,76.98
2022-08-17T06:04:05.765Z,77.29
2022-08-17T06:06:38.141Z,77.56
2022-08-17T06:09:09.984Z,75.94
2022-08-17T06:11:41.489Z,76.45
2022-08-17T06:14:13.336Z,73.94
2022-08-17T06:16:44.858Z,72.27
2022-08-17T06:19:16.442Z,73.03
2022-08-17T06:21:47.983Z,69.26
2022-08-17T06:24:19.953Z,69.61
2022-08-17T06:26:51.471Z,66.83
2022-08-17T06:29:23.414Z,65.15
2022-08-17T06:31:54.976Z,65.16
2022-08-17T06:34:27.155Z,64.48
2022-08-17T06:36:59.150Z,63.44
2022-08-17T06:39:31.131Z,64.40
2022-08-17T06:42:02.701Z,61.70
2022-08-17T06:44:43.421Z,59.45
2022-08-17T06:47:28.479Z,58.81
2022-08-17T06:50:01.384Z,59.38
2022-08-17T06:52:45.777Z,58.94
2022-08-17T06:55:18.974Z,56.39
2022-08-17T06:57:51.367Z,55.17
2022-08-17T07:00:23.239Z,54.73
2022-08-17T07:02:55.876Z,53.82
2022-08-17T07:05:27.421Z,52.67
2022-08-17T07:08:02.292Z,52.40
2022-08-17T07:10:33.970Z,50.33
2022-08-17T07:13:05.850Z,50.08
2022-08-17T07:15:37.360Z,49.20
2022-08-17T07:18:09.352Z,48.82
2022-08-17T07:20:42.750Z,48.34
2022-08-17T07:23:14.754Z,48.54
2022-08-17T07:25:46.278Z,49.98
2022-08-17T07:28:18.711Z,50.38
2022-08-17T07:30:50.244Z,50.39
2022-08-17T07:33:22.943Z,49.07
2022-08-17T07:35:54.469Z,48.40
2022-08-17T07:38:28.580Z,46.04
2022-08-17T07:41:05.105Z,48.69
2022-08-17T07:43:36.679Z,46.60
2022-08-17T07:46:27.482Z,46.35
2022-08-17T07:48:59.291Z,46.63
2022-08-17T07:51:31.206Z,45.35
2022-08-17T07:54:13.955Z,44.62
2022-08-17T07:56:46.556Z,43.96
2022-08-17T07:59:18.345Z,43.60
2022-08-17T08:01:57.470Z,43.55
2022-08-17T08:07:21.304Z,41.95
2022-08-17T08:09:53.245Z,40.61
2022-08-17T08:12:24.766Z,43.22
2022-08-17T08:15:05.445Z,41.48
2022-08-17T08:17:37.023Z,38.86
2022-08-17T08:20:42.515Z,40.42
2022-08-17T08:23:00.776Z,39.79
2022-08-17T08:25:33.217Z,41.46
2022-08-17T08:28:05.608Z,40.00
2022-08-17T08:30:37.423Z,39.62
2022-08-17T08:33:08.976Z,40.38
2022-08-17T08:35:40.796Z,40.13
2022-08-17T08:38:12.335Z,39.01
2022-08-17T08:40:44.222Z,39.46
2022-08-17T08:43:15.724Z,38.49
2022-08-17T08:45:47.562Z,38.52
2022-08-17T08:48:46.114Z,39.74
2022-08-17T08:51:10.934Z,38.70
2022-08-17T08:53:42.787Z,36.82
2022-08-17T08:56:14.280Z,36.92
2022-08-17T08:58:47.688Z,35.89
2022-08-17T09:01:19.290Z,36.94
2022-08-17T09:03:53.065Z,36.73
2022-08-17T09:06:32.488Z,35.88
2022-08-17T09:09:11.779Z,36.40
2022-08-17T09:12:01.823Z,36.35
2022-08-17T09:14:46.625Z,35.61
2022-08-17T09:17:19.225Z,33.77
2022-08-17T09:19:51.186Z,33.80
2022-08-17T09:22:22.969Z,33.98
2022-08-17T09:24:57.117Z,33.04
2022-08-17T09:27:29.230Z,33.13
2022-08-17T09:30:00.804Z,33.33
2022-08-17T09:32:32.616Z,32.35
2022-08-17T09:35:04.180Z,31.71
2022-08-17T09:37:36.348Z,32.00
2022-08-17T09:40:09.666Z,31.67
2022-08-17T09:42:41.705Z,32.29
2022-08-17T09:45:13.545Z,32.40
2022-08-17T09:47:46.935Z,30.75
2022-08-17T09:50:20.253Z,31.18
2022-08-17T09:53:12.068Z,32.14
2022-08-17T09:55:43.551Z,30.56
2022-08-17T09:58:15.357Z,29.11
2022-08-17T10:00:46.926Z,30.02
2022-08-17T10:03:20.290Z,29.56
2022-08-17T10:05:56.888Z,29.40
2022-08-17T10:08:29.010Z,28.46
2022-08-17T10:11:00.525Z,29.56
2022-08-17T10:13:32.355Z,29.29
2022-08-17T10:16:07.748Z,29.81
2022-08-17T10:18:39.603Z,30.06
2022-08-17T10:21:30.142Z,29.83
2022-08-17T10:24:21.946Z,30.80
2022-08-17T10:26:57.232Z,27.84
2022-08-17T10:29:29.111Z,28.56
2022-08-17T10:32:04.177Z,29.37
2022-08-17T10:34:40.414Z,29.34
2022-08-17T10:37:13.658Z,29.96
2022-08-17T10:39:52.022Z,29.38
2022-08-17T10:42:30.144Z,29.37
2022-08-17T10:45:03.903Z,29.50
2022-08-17T10:47:54.705Z,30.14
2022-08-17T10:50:26.822Z,29.92
2022-08-17T10:52:58.938Z,28.82
2022-08-17T10:55:30.449Z,28.48
2022-08-17T10:58:02.026Z,29.52
2022-08-17T11:00:33.580Z,28.38
2022-08-17T11:03:05.368Z,27.39
2022-08-17T11:05:40.151Z,28.28
2022-08-17T11:08:15.366Z,27.37
2022-08-17T11:10:52.149Z,27.52
2022-08-17T11:13:24.554Z,29.44
2022-08-17T11:16:00.654Z,29.76
2022-08-17T11:18:33.954Z,30.60
2022-08-17T11:21:05.481Z,29.50
2022-08-17T11:23:37.518Z,29.66
2022-08-17T11:26:09.036Z,27.72
2022-08-17T11:28:40.557Z,28.08
2022-08-17T11:31:12.140Z,28.08
2022-08-17T11:33:45.162Z,28.99
2022-08-17T11:36:16.682Z,27.25
2022-08-17T11:38:48.223Z,27.27
2022-08-17T11:41:20.228Z,25.65
2022-08-17T11:43:52.113Z,25.11
2022-08-17T11:46:23.623Z,26.21
2022-08-17T11:49:14.221Z,26.25
2022-08-17T11:51:45.984Z,26.15
2022-08-17T11:54:32.696Z,28.36
2022-08-17T11:57:06.300Z,29.61
2022-08-17T11:59:39.973Z,30.14
2022-08-17T12:02:11.557Z,29.20
2022-08-17T12:04:47.179Z,29.77
2022-08-17T12:07:18.796Z,29.64
2022-08-17T12:09:50.304Z,29.03
2022-08-17T12:12:22.145Z,29.94
2022-08-17T12:15:10.964Z,30.03
2022-08-17T12:17:46.923Z,28.12
2022-08-17T12:20:21.428Z,28.00
2022-08-17T12:22:55.069Z,28.88
2022-08-17T12:25:26.601Z,28.68
2022-08-17T12:28:06.457Z,27.48
2022-08-17T12:30:38.670Z,27.35
2022-08-17T12:33:11.321Z,26.53
2022-08-17T12:35:43.359Z,26.88
2022-08-17T12:38:30.379Z,27.95
2022-08-17T12:41:24.368Z,28.45
2022-08-17T12:43:55.944Z,28.64
2022-08-17T12:46:27.430Z,29.27
2022-08-17T12:49:00.238Z,29.61
2022-08-17T12:51:31.900Z,28.68
2022-08-17T12:54:03.714Z,29.34
2022-08-17T12:56:35.216Z,28.39
2022-08-17T12:59:07.435Z,27.07
2022-08-17T13:01:40.160Z,25.99
2022-08-17T13:04:12.118Z,26.50
2022-08-17T13:06:43.641Z,27.61
2022-08-17T13:09:15.193Z,27.37
2022-08-17T13:11:47.018Z,26.39
2022-08-17T13:14:18.681Z,27.24
2022-08-17T13:16:50.242Z,26.40
2022-08-17T13:19:40.059Z,26.22
2022-08-17T13:22:13.011Z,26.22
2022-08-17T13:24:44.525Z,26.51
2022-08-17T13:27:18.031Z,26.97
2022-08-17T13:29:51.445Z,28.04
2022-08-17T13:32:26.838Z,28.51
2022-08-17T13:35:12.154Z,27.63
2022-08-17T13:37:47.404Z,28.39
2022-08-17T13:40:19.035Z,27.17
2022-08-17T13:42:53.081Z,27.15
2022-08-17T13:45:35.695Z,27.94
2022-08-17T13:48:08.836Z,26.67
2022-08-17T13:50:44.061Z,27.97
2022-08-17T13:53:15.876Z,28.06
2022-08-17T13:55:47.489Z,27.55
2022-08-17T13:58:19.351Z,27.40
2022-08-17T14:00:51.747Z,28.93
2022-08-17T14:03:23.645Z,28.56
2022-08-17T14:05:55.165Z,27.81
2022-08-17T14:08:31.360Z,27.48
2022-08-17T14:11:02.944Z,27.40
2022-08-17T14:13:35.517Z,28.13
2022-08-17T14:16:07.028Z,27.68
2022-08-17T14:18:55.691Z,28.11
2022-08-17T14:21:29.117Z,28.56
2022-08-17T14:24:00.620Z,28.88
2022-08-17T14:26:33.454Z,27.08
2022-08-17T14:29:05.206Z,26.74
2022-08-17T14:31:52.174Z,25.26
2022-08-17T14:34:25.923Z,26.18
2022-08-17T14:36:57.925Z,27.15
2022-08-17T14:39:29.527Z,26.42
2022-08-17T14:42:01.329Z,26.92
2022-08-17T14:44:32.859Z,26.03
2022-08-17T14:47:04.688Z,25.63
2022-08-17T14:49:36.179Z,24.51
2022-08-17T14:52:07.994Z,25.04
2022-08-17T14:54:45.178Z,24.44
2022-08-17T14:57:23.361Z,24.87
2022-08-17T15:00:05.489Z,24.42
2022-08-17T15:02:37.437Z,23.94
2022-08-17T15:05:08.957Z,24.72
2022-08-17T15:07:40.900Z,26.14
2022-08-17T15:10:12.423Z,26.83
2022-08-17T15:12:44.244Z,27.95
2022-08-17T15:15:15.781Z,29.96
2022-08-17T15:17:47.383Z,27.27
2022-08-17T15:20:18.937Z,27.60
2022-08-17T15:22:50.844Z,27.24
2022-08-17T15:25:22.418Z,26.54
2022-08-17T15:27:56.178Z,27.10
2022-08-17T15:30:28.100Z,27.73
2022-08-17T15:32:59.677Z,27.25
2022-08-17T15:35:32.535Z,27.26
2022-08-17T15:38:10.618Z,26.84
2022-08-17T15:40:43.360Z,27.73
2022-08-17T15:43:14.933Z,27.40
2022-08-17T15:45:52.907Z,28.20
2022-08-17T15:48:41.914Z,29.31
2022-08-17T15:51:14.145Z,29.22
2022-08-17T15:53:45.709Z,29.84
2022-08-17T15:56:17.688Z,29.43
2022-08-17T15:58:49.242Z,30.26
2022-08-17T16:02:22.382Z,32.21
2022-08-17T16:04:29.737Z,31.11
2022-08-17T16:07:02.450Z,31.50
2022-08-17T16:09:34.027Z,30.88
2022-08-17T16:12:05.841Z,32.49
2022-08-17T16:14:37.400Z,31.64
2022-08-17T16:17:29.649Z,31.64
2022-08-17T16:20:01.647Z,30.29
2022-08-17T16:22:33.835Z,30.43
2022-08-17T16:25:05.358Z,30.11
2022-08-17T16:27:37.156Z,30.29
2022-08-17T16:30:11.402Z,30.05
2022-08-17T16:32:45.482Z,30.61
2022-08-17T16:35:17.387Z,30.81
2022-08-17T16:37:48.917Z,31.03
2022-08-17T16:40:21.237Z,30.79
2022-08-17T16:42:52.871Z,31.82
2022-08-17T16:45:24.783Z,33.03
2022-08-17T16:47:59.071Z,31.12
2022-08-17T16:50:32.247Z,31.24
2022-08-17T16:53:03.763Z,31.39
2022-08-17T16:55:35.996Z,31.71
2022-08-17T16:58:08.792Z,31.35
2022-08-17T17:00:42.420Z,31.53
2022-08-17T17:03:19.768Z,31.20
2022-08-17T17:05:57.864Z,32.28
2022-08-17T17:08:30.332Z,33.34
2022-08-17T17:11:03.578Z,33.17
2022-08-17T17:13:40.474Z,33.22
2022-08-17T17:16:12.382Z,33.64
2022-08-17T17:18:43.929Z,33.33
2022-08-17T17:21:15.893Z,34.14
2022-08-17T17:23:47.413Z,34.36
2022-08-17T17:26:19.494Z,34.36
2022-08-17T17:28:51.000Z,34.53
2022-08-17T17:31:25.556Z,34.52
2022-08-17T17:33:57.049Z,35.27
2022-08-17T17:36:28.927Z,35.58
2022-08-17T17:39:00.483Z,35.98
2022-08-17T17:41:32.429Z,35.90
2022-08-17T17:44:03.971Z,36.28
2022-08-17T17:46:37.756Z,36.78
2022-08-17T17:49:11.087Z,37.05
2022-08-17T17:52:07.744Z,37.31
2022-08-17T17:54:34.447Z,37.67
2022-08-17T17:57:06.186Z,36.83
2022-08-17T17:59:41.904Z,37.54
2022-08-17T18:02:35.807Z,37.34
2022-08-17T18:05:07.590Z,37.42
2022-08-17T18:07:39.397Z,37.94
2022-08-17T18:10:29.287Z,38.89
2022-08-17T18:13:01.640Z,39.15
2022-08-17T18:15:33.952Z,38.55
2022-08-17T18:18:05.816Z,39.00
2022-08-17T18:20:46.483Z,39.25
2022-08-17T18:23:28.606Z,39.18
2022-08-17T18:26:02.279Z,39.42
2022-08-17T18:28:33.877Z,40.33
2022-08-17T18:31:05.443Z,40.38
2022-08-17T18:33:37.033Z,40.80
2022-08-17T18:36:09.053Z,40.16
2022-08-17T18:38:40.703Z,40.15
2022-08-17T18:41:12.597Z,40.90
2022-08-17T18:43:53.757Z,40.83
2022-08-17T18:46:28.123Z,41.33
2022-08-17T18:49:00.701Z,41.42
2022-08-17T18:51:40.695Z,42.18
2022-08-17T18:54:14.301Z,42.26
2022-08-17T18:56:59.350Z,42.38
2022-08-17T18:59:30.950Z,41.78
2022-08-17T19:02:10.212Z,42.29
2022-08-17T19:04:45.391Z,42.36
2022-08-17T19:07:17.243Z,42.85
2022-08-17T19:09:48.774Z,43.07
2022-08-17T19:12:24.898Z,43.26
2022-08-17T19:14:58.442Z,43.51
2022-08-17T19:17:30.399Z,43.38
2022-08-17T19:20:01.945Z,43.84
2022-08-17T19:22:34.024Z,43.93
2022-08-17T19:25:05.542Z,44.12
2022-08-17T19:27:41.895Z,44.27
2022-08-17T19:30:17.844Z,44.32
2022-08-17T19:32:50.793Z,44.88
2022-08-17T19:35:23.502Z,44.70
2022-08-17T19:37:55.022Z,44.91
2022-08-17T19:40:51.034Z,45.02
2022-08-17T19:43:19.138Z,45.35
2022-08-17T19:45:51.092Z,45.53
2022-08-17T19:48:22.628Z,45.45
2022-08-17T19:50:54.535Z,45.39
2022-08-17T19:53:41.624Z,45.69
2022-08-17T19:56:19.035Z,46.04
2022-08-17T19:58:51.535Z,46.24
2022-08-17T20:01:23.741Z,46.14
2022-08-17T20:03:55.352Z,46.54
2022-08-17T20:06:27.433Z,46.78
2022-08-17T20:08:59.003Z,46.61
2022-08-17T20:11:31.127Z,47.55
2022-08-17T20:14:02.668Z,47.62
2022-08-17T20:16:34.588Z,47.96
2022-08-17T20:19:06.142Z,48.07
2022-08-17T20:21:37.990Z,48.28
2022-08-17T20:24:09.545Z,48.57
2022-08-17T20:26:41.126Z,47.86
2022-08-17T20:29:39.815Z,47.85
2022-08-17T20:32:12.692Z,48.40
2022-08-17T20:34:44.226Z,48.64
2022-08-17T20:37:16.110Z,48.91
2022-08-17T20:39:47.636Z,48.76
2022-08-17T20:42:19.440Z,48.90
2022-08-17T20:44:50.956Z,49.41
2022-08-17T20:47:27.217Z,49.58
2022-08-17T20:49:58.968Z,49.70
2022-08-17T20:52:30.856Z,49.94
2022-08-17T20:55:02.981Z,49.73
2022-08-17T20:57:34.922Z,49.91
2022-08-17T21:00:14.742Z,50.52
2022-08-17T21:02:46.310Z,50.08
2022-08-17T21:05:18.164Z,50.40
2022-08-17T21:07:50.472Z,50.65
2022-08-17T21:10:22.187Z,50.66
2022-08-17T21:12:53.711Z,50.73
2022-08-17T21:15:28.840Z,51.11
2022-08-17T21:18:00.728Z,51.76
2022-08-17T21:20:32.842Z,51.35
2022-08-17T21:23:05.176Z,51.64
2022-08-17T21:25:37.455Z,51.80
2022-08-17T21:28:09.239Z,52.04
2022-08-17T21:30:44.717Z,51.93
2022-08-17T21:33:16.310Z,52.11
2022-08-17T21:35:48.770Z,52.17
2022-08-17T21:38:20.359Z,52.38
2022-08-17T21:40:53.017Z,52.24
2022-08-17T21:43:24.533Z,52.16
2022-08-17T21:45:56.400Z,52.79
2022-08-17T21:48:28.396Z,52.43
2022-08-17T21:51:00.831Z,52.73
2022-08-17T21:53:33.366Z,53.51
2022-08-17T21:56:05.037Z,53.22
2022-08-17T21:58:39.424Z,53.08
2022-08-17T22:01:11.057Z,53.45
2022-08-17T22:03:43.125Z,53.70
2022-08-17T22:06:14.656Z,53.70
2022-08-17T22:08:46.686Z,53.86
2022-08-17T22:11:18.531Z,53.92
2022-08-17T22:13:50.494Z,54.20
2022-08-17T22:16:29.853Z,54.25
2022-08-17T22:19:01.882Z,54.83
2022-08-17T22:21:33.420Z,54.40
2022-08-17T22:24:05.299Z,54.57
2022-08-17T22:26:36.848Z,55.15
2022-08-17T22:29:08.980Z,55.24
2022-08-17T22:31:40.508Z,55.64
2022-08-17T22:34:12.456Z,56.11
2022-08-17T22:36:43.975Z,55.83
2022-08-17T22:39:15.816Z,56.03
2022-08-17T22:41:48.112Z,56.74
2022-08-17T22:44:20.060Z,56.91
2022-08-17T22:46:51.664Z,57.64
2022-08-17T22:49:23.610Z,57.43
2022-08-17T22:51:55.152Z,57.64
2022-08-17T22:54:45.881Z,58.22
2022-08-17T22:57:35.892Z,58.50
2022-08-17T23:00:07.786Z,58.53
2022-08-17T23:02:51.190Z,58.33
2022-08-17T23:05:27.484Z,58.96
2022-08-17T23:07:59.006Z,59.28
2022-08-17T23:10:30.923Z,59.07
2022-08-17T23:13:02.453Z,59.42
2022-08-17T23:15:34.473Z,59.68
2022-08-17T23:18:06.016Z,59.70
2022-08-17T23:20:37.915Z,59.62
2022-08-17T23:23:09.450Z,60.01
2022-08-17T23:25:41.319Z,60.53
2022-08-17T23:28:12.978Z,60.88
2022-08-17T23:30:44.921Z,61.02
2022-08-17T23:33:16.433Z,61.14
2022-08-17T23:35:48.316Z,61.31
2022-08-17T23:38:19.864Z,61.69
2022-08-17T23:40:51.735Z,61.78
2022-08-17T23:43:24.781Z,61.75
2022-08-17T23:45:58.402Z,61.96
2022-08-17T23:48:35.897Z,62.13
2022-08-17T23:51:09.144Z,62.55
2022-08-17T23:53:42.323Z,63.05
2022-08-17T23:56:13.860Z,63.25
2022-08-17T23:58:45.847Z,63.43
